Latest Weather Observations for Darwin Airport

IDD60801

Issued at 11:31 am CST Thursday 18 December 2014 (issued every 30 minutes, with the page automatically refreshed every 10 minutes)

About weather observations | Map of weather stations | Latest weather observations for NT | Other Formats
Station Details ID: 014015 Name: DARWIN AIRPORT Lat: -12.42 Lon: 130.89 Height: 30.4 m
Data from the previous 72 hours. | See also: Recent months at Darwin Airport
Date/Time
CST
Temp
°C
App
Temp
°C
Dew
Point
Rel
Hum
%
Delta-T
°C
Wind Press
QNH
hPa
Press
MSL
hPa
Rain
since 9 am
mm
Dir
 
Spd
km/h
Gust
km/h
Spd
kts
Gust
kts
18/11:30am 33.2 35.6 25.2 63 5.7 NNW 22 30 12 16 1009.8 - 0.0
18/11:00am 32.9 35.9 25.5 65 5.3 NW 20 32 11 17 1010.1 - 0.0
18/10:30am 32.8 36.4 25.6 66 5.1 NW 17 32 9 17 1010.3 - 0.0
18/10:00am 32.1 35.6 25.5 68 4.7 WNW 17 24 9 13 1010.2 - 0.0
18/09:30am 31.5 35.3 25.3 69 4.4 NW 15 22 8 12 1010.0 - 0.0
18/09:00am 31.2 35.3 25.7 72 3.9 WNW 15 20 8 11 1009.7 1009.4 0.0
18/08:30am 31.2 34.8 25.6 72 4.0 NW 17 22 9 12 1009.3 - 0.0
18/08:00am 30.8 34.9 25.7 74 3.6 NW 15 20 8 11 1009.0 - 0.0
18/07:30am 30.3 34.4 25.8 77 3.2 NW 15 19 8 10 1008.7 - 0.0
18/07:00am 29.7 34.8 26.1 81 2.6 NW 11 15 6 8 1008.4 - 0.0
18/06:30am 28.2 33.7 26.2 89 1.4 NNW 9 11 5 6 1008.0 - 0.0
18/05:00am 28.2 34.0 26.1 88 1.5 NW 7 9 4 5 1006.9 - 0.0
18/04:30am 28.8 34.6 26.6 88 1.6 WNW 9 11 5 6 1006.6 - 0.0
18/04:00am 29.7 34.6 25.8 79 2.8 NW 11 13 6 7 1006.4 - 0.0
18/03:30am 29.4 34.6 25.7 80 2.6 WNW 9 13 5 7 1006.5 - 0.0
18/03:00am 29.5 34.3 25.7 80 2.7 W 11 15 6 8 1006.4 1006.1 0.0
18/02:30am 29.8 34.5 25.6 78 3.0 W 11 13 6 7 1006.4 - 0.0
18/02:00am 30.0 34.0 25.6 77 3.1 WNW 15 19 8 10 1006.7 - 0.0
18/01:30am 30.1 34.2 25.7 77 3.1 WNW 15 20 8 11 1007.0 - 0.0
18/01:00am 30.2 34.3 25.8 77 3.1 NW 15 19 8 10 1007.0 - 0.0
18/12:30am 30.1 34.7 25.9 78 3.0 NW 13 17 7 9 1007.3 - 0.0
 
Date/Time
CST
Temp
°C
App
Temp
°C
Dew
Point
Rel
Hum
%
Delta-T
°C
Wind Press
QNH
hPa
Press
MSL
hPa
Rain
since 9 am
mm
Dir
 
Spd
km/h
Gust
km/h
Spd
kts
Gust
kts
17/11:30pm 30.5 35.5 26.0 77 3.2 NW 11 13 6 7 1008.3 - 0.0
17/11:00pm 30.3 35.6 25.8 77 3.2 W 9 13 5 7 1008.4 - 0.0
17/10:30pm 30.1 33.8 25.7 77 3.1 W 17 20 9 11 1007.7 - 0.0
17/10:00pm 30.0 34.1 25.8 78 3.0 W 15 19 8 10 1007.9 - 0.0
17/09:30pm 30.0 33.9 25.5 77 3.2 W 15 17 8 9 1008.3 - 0.0
17/09:00pm 30.1 34.3 25.4 76 3.3 W 13 17 7 9 1008.5 1008.2 0.0
17/08:30pm 30.4 34.5 25.2 74 3.7 WSW 13 17 7 9 1008.3 - 0.0
17/08:00pm 30.4 34.0 25.0 73 3.8 WSW 15 20 8 11 1007.6 - 0.0
17/07:30pm 30.5 33.9 24.7 71 4.1 W 15 20 8 11 1007.4 - 0.0
17/07:00pm 30.5 33.6 24.8 71 4.0 W 17 24 9 13 1006.5 - 0.0
17/06:30pm 30.7 33.5 25.0 71 4.0 W 19 26 10 14 1005.8 - 0.0
17/06:00pm 30.8 33.5 25.1 71 4.0 W 20 28 11 15 1005.3 1005.0 0.0
17/05:30pm 30.9 33.4 25.4 72 3.9 WNW 22 30 12 16 1004.8 - 0.0
17/05:00pm 31.3 33.3 25.2 70 4.3 WNW 24 30 13 16 1004.8 - 0.0
17/04:30pm 31.3 32.4 24.9 69 4.5 WNW 28 33 15 18 1005.4 - 0.0
17/04:00pm 31.1 33.3 24.9 69 4.4 W 22 28 12 15 1005.3 - 0.0
17/03:30pm 31.6 33.7 25.3 69 4.5 WNW 24 30 13 16 1005.4 - 0.0
17/03:00pm 31.8 33.1 24.7 66 5.0 WNW 26 32 14 17 1005.2 1004.9 0.0
17/02:30pm 33.9 34.6 24.9 59 6.4 NW 30 37 16 20 1005.4 - 0.0
17/02:00pm 33.1 34.4 25.2 63 5.6 NW 28 35 15 19 1006.2 - 0.0
17/01:30pm 33.7 35.2 25.0 60 6.2 NW 26 37 14 20 1006.8 - 0.0
17/01:00pm 33.7 34.8 24.3 58 6.6 NW 26 35 14 19 1007.1 - 0.0
17/12:30pm 33.7 34.6 24.0 57 6.8 NW 26 32 14 17 1007.4 - 0.0
17/12:00pm 33.7 35.6 25.0 60 6.2 NW 24 32 13 17 1007.8 1007.5 0.0
17/11:30am 33.2 35.8 25.5 64 5.5 NW 22 32 12 17 1008.3 - 0.0
17/11:00am 32.8 35.4 24.9 63 5.6 NW 20 30 11 16 1008.4 - 0.0
17/10:30am 32.7 34.4 24.1 60 6.0 NW 22 32 12 17 1008.4 - 0.0
17/10:00am 32.5 34.7 24.9 64 5.4 NW 22 30 12 16 1008.3 - 0.0
17/09:30am 32.1 34.8 25.0 66 5.0 NW 20 28 11 15 1008.5 - 0.0
17/09:00am 31.3 34.3 25.2 70 4.3 NW 19 28 10 15 1008.2 1007.9 0.0
17/08:30am 31.7 34.8 25.4 69 4.5 NW 19 24 10 13 1008.0 - 0.0
17/08:00am 31.0 34.5 25.4 72 4.0 NW 17 24 9 13 1007.9 - 0.0
17/07:30am 30.9 34.4 26.0 75 3.5 WNW 19 22 10 12 1007.5 - 0.0
17/07:00am 30.5 33.8 25.1 73 3.8 WNW 17 22 9 12 1007.4 - 0.0
17/06:30am 30.0 34.3 25.5 77 3.2 WNW 13 17 7 9 1007.2 - 0.0
17/06:00am 30.1 33.9 25.9 78 3.0 NW 17 20 9 11 1006.8 1006.5 0.0
17/05:30am 29.8 34.2 25.7 78 2.9 WNW 13 17 7 9 1006.4 - 0.0
17/05:00am 29.8 33.9 25.7 78 2.9 W 15 19 8 10 1006.2 - 0.0
17/04:30am 29.8 32.9 25.4 77 3.1 W 19 26 10 14 1005.8 - 0.0
17/04:00am 29.9 33.2 25.7 78 3.0 WNW 19 22 10 12 1005.9 - 0.0
17/03:30am 30.1 33.2 25.4 76 3.3 WNW 19 28 10 15 1005.7 - 0.0
17/03:00am 30.0 33.9 26.1 79 2.8 W 17 22 9 12 1005.7 1005.4 0.0
17/02:30am 30.1 34.0 26.0 78 2.9 W 17 22 9 12 1005.7 - 0.0
17/02:00am 30.3 33.0 25.7 76 3.3 WNW 22 28 12 15 1006.0 - 0.0
17/01:30am 30.2 33.4 25.5 76 3.3 W 19 26 10 14 1006.3 - 0.0
17/01:00am 30.2 34.3 25.2 74 3.5 W 13 20 7 11 1006.6 - 0.0
17/12:30am 30.1 34.3 26.0 78 2.9 W 15 19 8 10 1007.0 - 0.0
17/12:00am 30.1 34.2 25.7 77 3.1 W 15 19 8 10 1007.5 1007.2 0.0
 
Date/Time
CST
Temp
°C
App
Temp
°C
Dew
Point
Rel
Hum
%
Delta-T
°C
Wind Press
QNH
hPa
Press
MSL
hPa
Rain
since 9 am
mm
Dir
 
Spd
km/h
Gust
km/h
Spd
kts
Gust
kts
16/11:30pm 30.2 33.3 25.4 75 3.4 W 19 26 10 14 1007.6 - 0.0
16/11:00pm 30.1 34.2 25.7 77 3.1 W 15 20 8 11 1007.6 - 0.0
16/10:30pm 30.1 33.8 25.7 77 3.1 W 17 20 9 11 1007.1 - 0.0
16/10:00pm 30.3 33.4 25.4 75 3.5 W 19 24 10 13 1007.0 - 0.0
16/09:30pm 30.3 33.8 25.5 75 3.4 W 17 20 9 11 1006.8 - 0.0
16/09:00pm 30.5 34.3 25.3 74 3.7 W 15 19 8 10 1006.9 1006.6 0.0
16/08:30pm 30.6 34.0 25.8 75 3.4 W 19 24 10 13 1006.6 - 0.0
16/08:00pm 30.7 33.9 25.5 74 3.7 WNW 19 28 10 15 1006.3 - 0.0
16/07:30pm 30.7 33.5 25.8 75 3.5 W 22 30 12 16 1005.9 - 0.0
16/07:00pm 31.2 33.5 26.2 75 3.6 WNW 26 32 14 17 1005.3 - 0.0
16/06:30pm 31.5 33.2 25.3 69 4.4 WNW 26 33 14 18 1005.4 - 0.0
16/06:00pm 32.2 33.5 25.3 67 4.9 WNW 28 33 15 18 1004.8 1004.5 0.0
16/05:30pm 32.3 33.5 25.1 65 5.1 WNW 28 33 15 18 1004.2 - 0.0
16/05:00pm 33.2 34.1 25.8 65 5.3 WNW 32 35 17 19 1004.0 - 0.0
16/04:30pm 33.5 34.4 25.2 62 5.9 WNW 30 33 16 18 1004.7 - 0.0
16/04:00pm 34.4 35.2 25.0 58 6.7 WNW 30 35 16 19 1004.5 - 0.0
16/03:30pm 34.0 34.5 24.0 56 7.0 WNW 28 33 15 18 1004.6 - 0.0
16/03:00pm 34.1 35.2 24.9 58 6.5 WNW 28 37 15 20 1005.7 1005.4 0.0
16/02:30pm 33.7 35.3 25.7 63 5.7 NW 28 32 15 17 1006.2 - 0.0
16/02:00pm 34.1 35.8 25.9 62 5.9 WNW 28 33 15 18 1006.6 - 0.0
16/01:30pm 33.6 35.2 25.2 61 6.0 WNW 26 33 14 18 1007.0 - 0.0
16/01:00pm 33.2 35.8 25.5 64 5.5 NW 22 33 12 18 1007.5 - 0.0
16/12:30pm 33.3 34.6 23.4 56 6.9 NW 22 30 12 16 1007.9 - 0.0
16/12:00pm 33.3 35.5 24.8 61 6.0 NW 22 30 12 16 1008.5 1008.2 0.0
16/11:30am 33.1 35.3 25.5 64 5.4 NNW 24 28 13 15 1008.7 - 0.0
16/11:00am 32.8 35.6 24.9 63 5.6 WNW 19 24 10 13 1009.1 - 0.0
16/10:30am 32.8 36.2 25.2 64 5.4 NW 17 26 9 14 1009.2 - 0.0
16/10:00am 32.3 35.5 25.6 67 4.8 WNW 19 26 10 14 1009.2 - 0.0
16/09:30am 31.8 35.0 25.6 69 4.4 NW 19 28 10 15 1009.2 - 0.0
16/09:00am 32.2 35.6 24.7 64 5.3 NW 15 22 8 12 1009.2 1008.9 0.0
16/08:30am 31.3 35.2 25.5 71 4.1 NW 15 20 8 11 1009.0 - 0.0
16/08:00am 30.9 34.6 25.7 74 3.7 NW 17 19 9 10 1009.0 - 0.0
16/07:30am 30.5 34.6 25.7 75 3.4 WNW 15 19 8 10 1008.6 - 0.0
16/07:00am 29.8 34.4 26.0 80 2.7 WNW 13 15 7 8 1008.2 - 0.0
16/06:30am 29.4 34.0 25.9 81 2.5 WNW 13 19 7 10 1007.9 - 0.0
16/06:00am 29.4 33.8 25.7 80 2.6 WNW 13 17 7 9 1007.4 1007.1 0.0
16/05:30am 29.5 33.2 25.7 80 2.7 WNW 17 19 9 10 1006.9 - 0.0
16/05:00am 29.5 33.2 25.7 80 2.7 WNW 17 22 9 12 1006.5 - 0.0
16/04:30am 29.3 33.4 25.8 81 2.5 W 15 20 8 11 1006.3 - 0.0
16/04:00am 29.4 33.0 25.6 80 2.7 W 17 22 9 12 1006.2 - 0.0
16/03:30am 29.4 33.1 25.7 80 2.6 W 17 20 9 11 1006.3 - 0.0
16/03:00am 29.6 32.1 25.4 78 3.0 W 22 28 12 15 1006.5 1006.2 0.0
16/02:30am 29.8 33.3 25.4 77 3.1 W 17 24 9 13 1006.5 - 0.0
16/02:00am 29.9 32.1 26.0 79 2.8 WNW 26 32 14 17 1006.7 - 0.0
16/01:30am 29.9 32.6 25.7 78 3.0 WNW 22 30 12 16 1007.0 - 0.0
16/01:00am 30.0 33.6 26.4 81 2.6 WNW 20 30 11 16 1007.3 - 0.0
16/12:30am 30.1 33.0 26.0 78 2.9 WNW 22 28 12 15 1007.6 - 0.0
16/12:00am 30.2 33.4 25.8 77 3.1 WNW 20 28 11 15 1007.8 1007.5 0.0
 
Date/Time
CST
Temp
°C
App
Temp
°C
Dew
Point
Rel
Hum
%
Delta-T
°C
Wind Press
QNH
hPa
Press
MSL
hPa
Rain
since 9 am
mm
Dir
 
Spd
km/h
Gust
km/h
Spd
kts
Gust
kts
15/11:30pm 30.2 33.7 26.3 79 2.8 WNW 20 28 11 15 1008.0 - 0.0
15/11:00pm 30.2 33.5 26.0 78 3.0 WNW 20 26 11 14 1007.9 - 0.0
15/10:30pm 30.2 34.5 26.1 79 2.9 W 15 20 8 11 1007.6 - 0.0
15/10:00pm 30.4 34.4 26.2 78 3.0 WNW 17 24 9 13 1007.3 - 0.0
15/09:30pm 30.4 34.2 25.9 77 3.2 WNW 17 24 9 13 1007.0 - 0.0
15/09:00pm 30.3 34.5 26.0 78 3.1 WNW 15 19 8 10 1007.3 1007.0 0.0
15/08:30pm 30.4 34.3 25.5 75 3.5 W 15 20 8 11 1007.2 - 0.0
15/08:00pm 30.5 34.0 25.4 74 3.6 W 17 20 9 11 1006.9 - 0.0
15/07:30pm 30.7 35.0 26.1 76 3.3 W 15 20 8 11 1007.1 - 0.0
15/07:00pm 30.7 34.1 25.9 75 3.4 W 19 26 10 14 1007.1 - 0.0
15/06:30pm 31.1 32.2 25.6 72 3.9 WNW 30 37 16 20 1006.0 - 0.0
15/06:00pm 31.3 32.9 25.8 72 3.9 WNW 28 33 15 18 1006.1 1005.8 0.0
15/05:30pm 32.0 33.2 25.7 69 4.5 WNW 30 37 16 20 1005.2 - 0.0
15/05:00pm 32.7 32.8 24.9 63 5.5 NW 33 41 18 22 1005.4 - 0.0
15/04:30pm 33.0 32.3 24.2 60 6.2 WNW 35 41 19 22 1004.8 - 0.0
15/04:00pm 33.3 33.1 24.0 58 6.5 WNW 32 39 17 21 1005.4 - 0.0
15/03:30pm 33.9 33.6 24.2 57 6.8 WNW 33 41 18 22 1005.3 - 0.0
15/03:00pm 33.7 33.8 24.5 58 6.5 WNW 32 41 17 22 1005.9 1005.6 0.0
15/02:30pm 33.4 33.3 25.2 62 5.8 WNW 35 39 19 21 1006.1 - 0.0
15/02:00pm 33.4 33.6 24.1 58 6.5 WNW 30 37 16 20 1006.6 - 0.0
15/01:30pm 33.8 34.2 25.1 60 6.2 WNW 32 37 17 20 1007.0 - 0.0
15/01:00pm 33.8 34.6 24.4 58 6.6 WNW 28 33 15 18 1007.7 - 0.0
15/12:30pm 34.2 35.8 25.1 59 6.5 WNW 26 33 14 18 1008.0 - 0.0
15/12:00pm 33.1 34.3 25.1 63 5.7 WNW 28 33 15 18 1008.4 1008.1 0.0

Other Formats:

Comma delimited format used in spreadsheet applications
http://www.bom.gov.au/fwo/IDD60801/IDD60801.94120.axf

JavaScript Object Notation format (JSON) in row-major order
http://www.bom.gov.au/fwo/IDD60801/IDD60801.94120.json